Time;durP1;ratioP1;P1;durP2;ratioP2;P2;SDS_P1;SDS_P2;PMS_P1;PMS_P2;Temp;Humidity;BMP_temperature;BMP_pressure;BME280_temperature;BME280_humidity;BME280_pressure;Samples;Min_cycle;Max_cycle;Signal;HPM_P1;HPM_P2
2023/07/25 00:01:09;;;;;;;;;4.75;2.00;;;;;;;;5097484;27;45466;-79
2023/07/25 00:03:35;;;;;;;;;2.25;2.25;;;;;;;;5097835;27;46154;-77
2023/07/25 00:06:01;;;;;;;;;2.00;2.00;;;;;;;;5097494;27;45335;-76
2023/07/25 00:08:27;;;;;;;;;2.75;2.00;;;;;;;;5097346;27;46504;-77
2023/07/25 00:10:52;;;;;;;;;4.67;3.00;;;;;;;;5097739;27;45437;-77
2023/07/25 00:13:17;;;;;;;;;3.00;3.00;;;;;;;;5097507;27;46656;-77
2023/07/25 00:15:42;;;;;;;;;2.00;2.00;;;;;;;;5098198;27;45317;-78
2023/07/25 00:18:07;;;;;;;;;2.50;2.00;;;;;;;;5100912;27;45336;-79
2023/07/25 00:20:33;;;;;;;;;3.67;2.67;;;;;;;;5101483;27;45275;-78
2023/07/25 00:22:58;;;;;;;;;4.67;2.67;;;;;;;;5101174;27;45360;-78
2023/07/25 00:25:23;;;;;;;;;3.00;2.67;;;;;;;;5100705;27;45303;-81
2023/07/25 00:27:49;;;;;;;;;2.00;2.00;;;;;;;;5101061;27;45268;-82
2023/07/25 00:30:14;;;;;;;;;4.50;2.25;;;;;;;;5101473;27;45261;-84
2023/07/25 00:32:39;;;;;;;;;2.00;2.00;;;;;;;;5101475;27;46408;-76
2023/07/25 00:35:04;;;;;;;;;3.00;2.75;;;;;;;;5100636;27;45403;-77
2023/07/25 00:37:30;;;;;;;;;7.33;3.00;;;;;;;;5101002;27;45372;-80
2023/07/25 00:39:55;;;;;;;;;4.75;2.75;;;;;;;;5100820;27;45330;-79
2023/07/25 00:42:21;;;;;;;;;3.00;3.00;;;;;;;;5100712;27;46373;-80
2023/07/25 00:44:46;;;;;;;;;6.33;4.00;;;;;;;;5100182;27;45248;-80
2023/07/25 00:47:11;;;;;;;;;7.00;3.67;;;;;;;;5100790;27;45188;-79
2023/07/25 00:49:36;;;;;;;;;5.00;3.67;;;;;;;;5100881;27;45387;-76
2023/07/25 00:52:02;;;;;;;;;5.00;5.00;;;;;;;;5100580;27;45496;-77
2023/07/25 00:54:27;;;;;;;;;6.33;4.33;;;;;;;;5100515;27;45423;-78
2023/07/25 00:56:52;;;;;;;;;6.00;4.00;;;;;;;;5100438;27;45392;-80
2023/07/25 00:59:17;;;;;;;;;4.00;2.25;;;;;;;;5100745;27;45532;-79
2023/07/25 01:01:43;;;;;;;;;2.75;2.50;;;;;;;;5100183;27;46209;-79
2023/07/25 01:04:08;;;;;;;;;5.50;2.25;;;;;;;;5100194;27;45361;-79
2023/07/25 01:06:34;;;;;;;;;6.25;3.75;;;;;;;;5100998;27;45334;-79
2023/07/25 01:08:59;;;;;;;;;4.00;4.00;;;;;;;;5100668;27;45252;-79
2023/07/25 01:11:24;;;;;;;;;4.50;2.25;;;;;;;;5100214;27;46604;-79
2023/07/25 01:13:50;;;;;;;;;4.00;3.00;;;;;;;;5100139;27;45423;-81
2023/07/25 01:16:19;;;;;;;;;3.75;3.50;;;;;;;;5100405;27;45421;-79
2023/07/25 01:18:45;;;;;;;;;3.00;3.00;;;;;;;;5100343;27;45375;-80
2023/07/25 01:21:11;;;;;;;;;3.67;3.67;;;;;;;;5099744;27;46990;-82
2023/07/25 01:23:37;;;;;;;;;4.00;3.50;;;;;;;;5100012;27;45537;-82
2023/07/25 01:26:03;;;;;;;;;4.00;4.00;;;;;;;;5100127;27;45280;-82
2023/07/25 01:28:28;;;;;;;;;2.00;2.00;;;;;;;;5099939;27;45398;-80
2023/07/25 01:30:53;;;;;;;;;3.50;2.00;;;;;;;;5099561;27;45461;-79
2023/07/25 01:33:18;;;;;;;;;2.00;2.00;;;;;;;;5081595;27;45354;-81
2023/07/25 01:35:43;;;;;;;;;3.75;2.75;;;;;;;;5099863;27;45406;-79
2023/07/25 01:38:09;;;;;;;;;4.00;3.00;;;;;;;;5100023;27;45491;-80
2023/07/25 01:40:34;;;;;;;;;10.67;5.67;;;;;;;;5099918;27;46579;-79
2023/07/25 01:42:59;;;;;;;;;5.00;3.25;;;;;;;;5099752;27;45333;-80
2023/07/25 01:45:24;;;;;;;;;4.25;4.00;;;;;;;;5100186;27;45323;-80
2023/07/25 01:47:50;;;;;;;;;5.75;3.75;;;;;;;;5099881;27;45300;-79
2023/07/25 01:50:15;;;;;;;;;4.50;3.00;;;;;;;;5099314;27;46169;-79
2023/07/25 01:52:40;;;;;;;;;5.67;3.33;;;;;;;;5099719;27;45395;-79
2023/07/25 01:55:05;;;;;;;;;4.00;4.00;;;;;;;;5099691;27;45327;-80
2023/07/25 01:57:31;;;;;;;;;8.67;4.33;;;;;;;;5099663;27;45282;-82
2023/07/25 01:59:56;;;;;;;;;4.00;4.00;;;;;;;;5099379;27;45453;-83
2023/07/25 02:02:22;;;;;;;;;5.50;3.00;;;;;;;;5099232;27;45299;-82
2023/07/25 02:04:47;;;;;;;;;4.50;3.50;;;;;;;;5099713;27;45364;-84
2023/07/25 02:07:12;;;;;;;;;2.00;2.00;;;;;;;;5099426;27;45334;-82
2023/07/25 02:09:37;;;;;;;;;3.00;3.00;;;;;;;;5099452;27;46171;-83
2023/07/25 02:12:03;;;;;;;;;6.00;4.25;;;;;;;;5099069;27;45677;-81
2023/07/25 02:14:28;;;;;;;;;2.75;2.25;;;;;;;;5099290;27;45696;-82
2023/07/25 02:16:53;;;;;;;;;4.50;3.00;;;;;;;;5099287;27;45568;-80
2023/07/25 02:19:18;;;;;;;;;3.50;3.00;;;;;;;;5098831;27;46119;-81
2023/07/25 02:21:43;;;;;;;;;2.00;2.00;;;;;;;;5099369;27;45263;-80
2023/07/25 02:24:08;;;;;;;;;5.25;4.25;;;;;;;;5099283;27;45365;-81
2023/07/25 02:26:34;;;;;;;;;4.00;4.00;;;;;;;;5099453;27;45422;-81
2023/07/25 02:28:59;;;;;;;;;6.25;2.00;;;;;;;;5098477;27;46115;-82
2023/07/25 02:31:24;;;;;;;;;3.33;3.33;;;;;;;;5098646;27;45333;-82
2023/07/25 02:33:49;;;;;;;;;2.75;2.75;;;;;;;;5099089;27;45266;-83
2023/07/25 02:36:15;;;;;;;;;3.00;2.75;;;;;;;;5099195;27;45244;-81
2023/07/25 02:38:40;;;;;;;;;6.00;3.00;;;;;;;;5097981;27;45225;-81
2023/07/25 02:41:05;;;;;;;;;3.00;2.00;;;;;;;;5098810;27;45418;-81
2023/07/25 02:43:30;;;;;;;;;3.00;3.00;;;;;;;;5108995;27;45423;-81
2023/07/25 02:45:55;;;;;;;;;5.00;3.00;;;;;;;;5119735;27;45191;-82
2023/07/25 02:48:21;;;;;;;;;6.75;3.50;;;;;;;;5119190;27;45500;-80
2023/07/25 02:50:46;;;;;;;;;4.00;4.00;;;;;;;;5119649;27;45286;-79
2023/07/25 02:53:11;;;;;;;;;6.33;6.33;;;;;;;;5119430;27;45379;-78
2023/07/25 02:55:37;;;;;;;;;6.75;3.75;;;;;;;;5119461;27;45191;-77
2023/07/25 02:58:02;;;;;;;;;3.75;3.75;;;;;;;;5107862;27;45504;-77
2023/07/25 03:00:27;;;;;;;;;7.25;4.75;;;;;;;;5098613;27;45408;-76
2023/07/25 03:02:52;;;;;;;;;4.25;3.00;;;;;;;;5098365;27;45249;-76
2023/07/25 03:05:18;;;;;;;;;4.00;4.00;;;;;;;;5098813;27;45389;-76
2023/07/25 03:07:43;;;;;;;;;5.33;5.33;;;;;;;;5098309;27;45631;-76
2023/07/25 03:10:09;;;;;;;;;7.67;5.33;;;;;;;;5098257;27;45406;-76
2023/07/25 03:12:34;;;;;;;;;5.00;4.33;;;;;;;;5098525;27;45368;-76
2023/07/25 03:14:59;;;;;;;;;5.67;5.00;;;;;;;;5098727;27;45407;-76
2023/07/25 03:17:24;;;;;;;;;7.00;5.00;;;;;;;;5097840;27;46178;-79
2023/07/25 03:19:50;;;;;;;;;4.00;3.00;;;;;;;;5098014;27;45343;-78
2023/07/25 03:22:17;;;;;;;;;8.33;5.00;;;;;;;;5098480;27;45378;-77
2023/07/25 03:24:42;;;;;;;;;10.00;5.25;;;;;;;;5098498;27;45386;-74
2023/07/25 03:27:07;;;;;;;;;6.00;5.00;;;;;;;;5098226;27;45365;-77
2023/07/25 03:29:33;;;;;;;;;5.00;5.00;;;;;;;;5097977;27;45540;-77
2023/07/25 03:31:58;;;;;;;;;7.00;4.00;;;;;;;;5098594;27;45461;-76
2023/07/25 03:34:23;;;;;;;;;7.67;4.33;;;;;;;;5098172;27;45244;-76
2023/07/25 03:36:48;;;;;;;;;4.25;4.00;;;;;;;;5098025;27;45405;-76
2023/07/25 03:39:13;;;;;;;;;6.67;5.00;;;;;;;;5098048;27;45310;-78
2023/07/25 03:41:39;;;;;;;;;6.33;5.00;;;;;;;;5098086;27;45463;-76
2023/07/25 03:44:04;;;;;;;;;25.67;24.00;;;;;;;;5097979;27;45462;-76
2023/07/25 03:46:29;;;;;;;;;8.67;6.67;;;;;;;;5097584;27;45497;-77
2023/07/25 03:48:54;;;;;;;;;7.33;6.33;;;;;;;;5097825;27;45210;-77
2023/07/25 03:51:20;;;;;;;;;7.00;6.00;;;;;;;;5101214;27;45377;-77
2023/07/25 03:53:45;;;;;;;;;10.33;8.33;;;;;;;;5101724;27;45378;-76
2023/07/25 03:56:10;;;;;;;;;10.67;9.33;;;;;;;;5101202;27;46425;-76
2023/07/25 03:58:35;;;;;;;;;6.67;6.67;;;;;;;;5101311;27;45201;-76
2023/07/25 04:01:00;;;;;;;;;6.00;6.00;;;;;;;;5101569;27;45316;-76
2023/07/25 04:03:26;;;;;;;;;5.75;5.75;;;;;;;;5101678;27;45375;-79
2023/07/25 04:05:51;;;;;;;;;4.33;3.00;;;;;;;;5101081;27;46470;-80
2023/07/25 04:08:16;;;;;;;;;5.50;5.50;;;;;;;;5101357;27;45231;-80
2023/07/25 04:10:41;;;;;;;;;7.75;6.50;;;;;;;;5101376;27;45343;-80
2023/07/25 04:13:06;;;;;;;;;8.67;7.00;;;;;;;;5101134;27;45228;-78
2023/07/25 04:15:32;;;;;;;;;9.33;8.33;;;;;;;;5101013;27;46401;-78
2023/07/25 04:17:57;;;;;;;;;8.33;6.00;;;;;;;;5101175;27;45221;-79
2023/07/25 04:20:22;;;;;;;;;9.00;8.33;;;;;;;;5101055;27;45216;-79
2023/07/25 04:22:47;;;;;;;;;9.33;9.33;;;;;;;;5101055;27;45355;-79
2023/07/25 04:25:12;;;;;;;;;7.00;5.33;;;;;;;;5100935;27;46420;-80
2023/07/25 04:27:38;;;;;;;;;6.00;6.00;;;;;;;;5100991;27;45539;-81
2023/07/25 04:30:03;;;;;;;;;9.67;7.67;;;;;;;;5100774;27;45208;-81
2023/07/25 04:32:28;;;;;;;;;6.00;6.00;;;;;;;;5101106;27;45475;-81
2023/07/25 04:34:54;;;;;;;;;6.33;6.33;;;;;;;;5100568;27;46315;-78
2023/07/25 04:37:19;;;;;;;;;6.00;6.00;;;;;;;;5100681;27;45849;-80
2023/07/25 04:39:44;;;;;;;;;8.67;8.00;;;;;;;;5100844;27;45363;-82
2023/07/25 04:42:09;;;;;;;;;11.67;6.33;;;;;;;;5101080;27;45431;-81
2023/07/25 04:44:34;;;;;;;;;7.00;5.00;;;;;;;;5100624;27;45465;-80
2023/07/25 04:47:00;;;;;;;;;8.33;7.00;;;;;;;;5100449;27;45476;-80
2023/07/25 04:49:25;;;;;;;;;10.33;7.00;;;;;;;;5100961;27;45420;-78
2023/07/25 04:51:50;;;;;;;;;6.33;5.00;;;;;;;;5100914;27;45376;-79
2023/07/25 04:54:15;;;;;;;;;11.00;9.33;;;;;;;;5100427;27;46174;-78
2023/07/25 04:56:41;;;;;;;;;6.67;6.67;;;;;;;;5100302;27;45383;-79
2023/07/25 04:59:06;;;;;;;;;9.67;7.00;;;;;;;;5100354;27;45306;-78
2023/07/25 05:01:32;;;;;;;;;7.33;5.33;;;;;;;;5099773;27;45291;-80
2023/07/25 05:03:57;;;;;;;;;8.33;6.00;;;;;;;;5100120;27;46178;-81
2023/07/25 05:06:22;;;;;;;;;6.33;6.00;;;;;;;;5100391;27;45351;-80
2023/07/25 05:08:47;;;;;;;;;5.67;5.00;;;;;;;;5100564;27;45409;-80
2023/07/25 05:11:12;;;;;;;;;6.00;4.50;;;;;;;;5100548;27;45284;-80
2023/07/25 05:13:37;;;;;;;;;4.50;4.00;;;;;;;;5099447;27;45522;-81
2023/07/25 05:16:03;;;;;;;;;8.50;6.00;;;;;;;;5108429;27;45456;-81
2023/07/25 05:18:28;;;;;;;;;7.00;5.00;;;;;;;;5120889;27;45287;-79
2023/07/25 05:20:53;;;;;;;;;7.00;5.00;;;;;;;;5109297;27;45340;-79
2023/07/25 05:23:18;;;;;;;;;10.67;9.67;;;;;;;;5120509;27;46478;-78
2023/07/25 05:25:45;;;;;;;;;6.25;6.00;;;;;;;;5120821;27;45519;-79
2023/07/25 05:28:10;;;;;;;;;9.33;8.00;;;;;;;;5120765;27;45374;-77
2023/07/25 05:30:35;;;;;;;;;7.00;6.00;;;;;;;;5120753;27;45441;-79
2023/07/25 05:33:01;;;;;;;;;8.33;6.00;;;;;;;;5120429;27;47196;-79
2023/07/25 05:35:26;;;;;;;;;7.67;7.33;;;;;;;;5120344;27;45227;-79
2023/07/25 05:37:51;;;;;;;;;6.00;6.00;;;;;;;;5112508;27;45422;-78
2023/07/25 05:40:16;;;;;;;;;9.00;8.33;;;;;;;;5108226;27;45191;-80
2023/07/25 05:42:41;;;;;;;;;7.50;4.75;;;;;;;;5109641;27;46573;-79
2023/07/25 05:45:07;;;;;;;;;7.00;4.00;;;;;;;;5099433;27;45421;-79
2023/07/25 05:47:32;;;;;;;;;9.00;6.25;;;;;;;;5099413;27;45263;-79
2023/07/25 05:49:57;;;;;;;;;5.75;4.00;;;;;;;;5099889;27;45273;-79
2023/07/25 05:52:22;;;;;;;;;6.00;6.00;;;;;;;;5099298;27;45450;-79
2023/07/25 05:54:49;;;;;;;;;10.00;8.00;;;;;;;;5099191;27;45362;-79
2023/07/25 05:57:14;;;;;;;;;5.33;5.00;;;;;;;;5099397;27;45330;-79
2023/07/25 05:59:40;;;;;;;;;9.67;7.00;;;;;;;;5099769;27;45344;-79
2023/07/25 06:02:06;;;;;;;;;7.75;4.50;;;;;;;;5099347;27;46274;-79
2023/07/25 06:04:31;;;;;;;;;8.33;5.00;;;;;;;;5099299;27;45408;-77
2023/07/25 06:06:56;;;;;;;;;7.00;6.33;;;;;;;;5099549;27;45369;-78
2023/07/25 06:09:21;;;;;;;;;7.33;6.67;;;;;;;;5099248;27;45291;-78
2023/07/25 06:11:47;;;;;;;;;30.67;27.00;;;;;;;;5098904;27;45437;-79
2023/07/25 06:14:12;;;;;;;;;11.00;6.33;;;;;;;;5098786;27;45376;-79
2023/07/25 06:16:37;;;;;;;;;5.67;4.00;;;;;;;;5099603;27;45446;-80
2023/07/25 06:19:02;;;;;;;;;7.00;6.33;;;;;;;;5099502;27;45319;-79
2023/07/25 06:21:28;;;;;;;;;8.00;5.00;;;;;;;;5098869;27;45490;-79
2023/07/25 06:23:53;;;;;;;;;8.00;6.67;;;;;;;;5098558;27;45340;-79
2023/07/25 06:26:18;;;;;;;;;7.00;6.00;;;;;;;;5097914;27;45677;-79
2023/07/25 06:28:44;;;;;;;;;6.67;6.67;;;;;;;;5098911;27;45217;-77
2023/07/25 06:31:09;;;;;;;;;9.00;9.00;;;;;;;;5098681;27;47120;-79
2023/07/25 06:33:35;;;;;;;;;7.50;5.50;;;;;;;;5098532;27;45149;-79
2023/07/25 06:36:00;;;;;;;;;4.00;4.00;;;;;;;;5098721;27;45401;-81
2023/07/25 06:38:25;;;;;;;;;5.75;5.75;;;;;;;;5098758;27;45355;-79
2023/07/25 06:40:51;;;;;;;;;6.00;5.33;;;;;;;;5098435;27;45605;-78
2023/07/25 06:43:16;;;;;;;;;9.33;9.33;;;;;;;;5098509;27;45208;-76
2023/07/25 06:45:41;;;;;;;;;9.67;8.00;;;;;;;;5098690;27;45229;-78
2023/07/25 06:48:06;;;;;;;;;4.33;4.33;;;;;;;;5098483;27;45245;-78
2023/07/25 06:50:33;;;;;;;;;8.33;5.00;;;;;;;;5098144;27;45416;-80
2023/07/25 06:52:58;;;;;;;;;4.00;4.00;;;;;;;;5098360;27;45552;-78
2023/07/25 06:55:23;;;;;;;;;10.00;5.33;;;;;;;;5098501;27;45236;-79
2023/07/25 06:57:48;;;;;;;;;5.50;4.00;;;;;;;;5098532;27;45406;-79
2023/07/25 07:00:14;;;;;;;;;10.00;7.00;;;;;;;;5098020;27;46498;-80
2023/07/25 07:02:40;;;;;;;;;4.00;4.00;;;;;;;;5098092;27;45808;-80
2023/07/25 07:05:06;;;;;;;;;3.50;3.50;;;;;;;;5098092;27;45589;-79
2023/07/25 07:07:31;;;;;;;;;5.25;3.00;;;;;;;;5098337;27;45511;-80
2023/07/25 07:09:56;;;;;;;;;4.33;4.33;;;;;;;;5097934;27;46661;-78
2023/07/25 07:12:21;;;;;;;;;5.50;4.00;;;;;;;;5097818;27;45480;-81
2023/07/25 07:14:46;;;;;;;;;4.50;3.25;;;;;;;;5098237;27;45358;-78
2023/07/25 07:17:12;;;;;;;;;4.00;4.00;;;;;;;;5097042;27;45406;-83
2023/07/25 07:19:37;;;;;;;;;6.00;6.00;;;;;;;;5098222;27;46466;-83
2023/07/25 07:22:02;;;;;;;;;5.67;4.00;;;;;;;;5104962;27;45312;-84
2023/07/25 07:24:28;;;;;;;;;2.33;2.33;;;;;;;;5118221;27;45878;-83
2023/07/25 07:26:53;;;;;;;;;4.00;4.00;;;;;;;;5118680;27;45469;-82
2023/07/25 07:29:18;;;;;;;;;7.67;6.00;;;;;;;;5118437;27;46578;-82
2023/07/25 07:31:43;;;;;;;;;5.67;5.67;;;;;;;;5118582;27;45317;-83
2023/07/25 07:34:10;;;;;;;;;6.00;4.00;;;;;;;;5118779;27;45485;-81
2023/07/25 07:36:35;;;;;;;;;4.33;4.00;;;;;;;;5102703;27;45372;-85
2023/07/25 07:39:00;;;;;;;;;3.50;2.25;;;;;;;;5097585;27;45936;-85
2023/07/25 07:41:25;;;;;;;;;2.33;2.00;;;;;;;;5104616;27;45316;-83
2023/07/25 07:43:50;;;;;;;;;4.33;4.00;;;;;;;;5118751;27;45429;-83
2023/07/25 07:46:15;;;;;;;;;4.33;4.00;;;;;;;;5108608;27;45281;-80
2023/07/25 07:48:43;;;;;;;;;6.00;3.33;;;;;;;;5098028;27;46212;-82
2023/07/25 07:51:08;;;;;;;;;3.25;2.00;;;;;;;;5097594;27;45232;-79
2023/07/25 07:53:33;;;;;;;;;8.00;5.67;;;;;;;;5098099;27;45414;-79
2023/07/25 07:56:03;;;;;;;;;3.00;1.50;;;;;;;;5098141;27;45280;-80
2023/07/25 07:58:28;;;;;;;;;4.33;2.00;;;;;;;;5097269;27;45429;-79
2023/07/25 08:00:53;;;;;;;;;5.00;2.67;;;;;;;;5101429;27;45409;-80
2023/07/25 08:03:18;;;;;;;;;2.67;2.00;;;;;;;;5107367;27;45664;-81
2023/07/25 08:05:44;;;;;;;;;2.33;2.33;;;;;;;;5106218;27;45350;-79
2023/07/25 08:08:09;;;;;;;;;4.00;2.00;;;;;;;;5095794;27;45436;-83
2023/07/25 08:10:34;;;;;;;;;5.00;3.25;;;;;;;;5097141;27;45500;-86
2023/07/25 08:13:00;;;;;;;;;2.50;2.00;;;;;;;;5096657;27;45272;-82
2023/07/25 08:15:25;;;;;;;;;3.00;3.00;;;;;;;;5098221;27;45280;-84
2023/07/25 08:17:50;;;;;;;;;3.25;3.00;;;;;;;;5096305;27;45473;-82
2023/07/25 08:20:15;;;;;;;;;1.50;1.50;;;;;;;;5096503;27;45510;-86
2023/07/25 08:22:40;;;;;;;;;2.25;2.25;;;;;;;;5097176;27;45368;-83
2023/07/25 08:25:06;;;;;;;;;2.00;2.00;;;;;;;;5097818;27;45252;-82
2023/07/25 08:27:31;;;;;;;;;2.50;2.00;;;;;;;;5096957;27;45368;-82
2023/07/25 08:29:56;;;;;;;;;1.25;1.00;;;;;;;;5097290;27;45220;-85
2023/07/25 08:32:24;;;;;;;;;2.00;2.00;;;;;;;;5097834;27;45416;-86
2023/07/25 08:34:49;;;;;;;;;1.75;1.00;;;;;;;;5097275;27;45712;-81
2023/07/25 08:37:14;;;;;;;;;2.00;1.00;;;;;;;;5098746;27;45763;-79
2023/07/25 08:39:39;;;;;;;;;3.50;1.75;;;;;;;;5101211;27;45552;-80
2023/07/25 08:42:08;;;;;;;;;5.00;2.00;;;;;;;;5098078;27;45581;-81
2023/07/25 08:44:35;;;;;;;;;4.67;2.67;;;;;;;;5094428;27;45473;-81
2023/07/25 08:47:04;;;;;;;;;3.25;1.00;;;;;;;;5091344;27;47564;-85
2023/07/25 08:49:30;;;;;;;;;2.50;2.50;;;;;;;;5094972;27;45540;-83
2023/07/25 08:51:59;;;;;;;;;2.00;2.00;;;;;;;;5096990;27;45881;-82
2023/07/25 08:54:29;;;;;;;;;6.00;3.00;;;;;;;;5098904;27;45403;-82
2023/07/25 08:56:54;;;;;;;;;1.00;1.00;;;;;;;;5095073;27;46274;-81
2023/07/25 08:59:19;;;;;;;;;12.00;7.67;;;;;;;;5084533;27;45353;-80
2023/07/25 09:01:45;;;;;;;;;3.75;3.75;;;;;;;;5089056;27;45368;-79
2023/07/25 09:04:10;;;;;;;;;3.50;1.25;;;;;;;;5099735;27;45343;-80
2023/07/25 09:06:36;;;;;;;;;4.00;1.25;;;;;;;;5099334;27;46881;-79
2023/07/25 09:09:01;;;;;;;;;3.00;3.00;;;;;;;;5100117;27;45315;-78
2023/07/25 09:11:26;;;;;;;;;2.75;2.75;;;;;;;;5120032;27;45481;-75
2023/07/25 09:13:52;;;;;;;;;2.00;2.00;;;;;;;;5110361;27;45415;-82
2023/07/25 09:16:17;;;;;;;;;1.33;1.33;;;;;;;;5100076;27;45513;-81
2023/07/25 09:18:42;;;;;;;;;4.25;2.50;;;;;;;;5100422;27;45428;-80
2023/07/25 09:21:08;;;;;;;;;5.00;3.00;;;;;;;;5100567;27;45274;-78
2023/07/25 09:23:33;;;;;;;;;2.00;2.00;;;;;;;;5100387;27;45794;-79
2023/07/25 09:26:05;;;;;;;;;3.25;1.50;;;;;;;;5100294;27;46140;-79
2023/07/25 09:28:31;;;;;;;;;3.75;2.00;;;;;;;;5103270;27;45421;-78
2023/07/25 09:30:56;;;;;;;;;4.00;4.00;;;;;;;;5097515;27;45434;-82
2023/07/25 09:33:26;;;;;;;;;3.33;3.00;;;;;;;;5100162;27;45332;-81
2023/07/25 09:35:52;;;;;;;;;3.00;3.00;;;;;;;;5100749;27;46668;-81
2023/07/25 09:38:18;;;;;;;;;5.50;2.50;;;;;;;;5100514;27;45546;-79
2023/07/25 09:40:45;;;;;;;;;3.00;3.00;;;;;;;;5100433;27;45454;-80
2023/07/25 09:43:20;;;;;;;;;3.00;3.00;;;;;;;;5098893;27;45418;-79
2023/07/25 09:45:45;;;;;;;;;2.25;1.00;;;;;;;;5099795;27;46269;-79
2023/07/25 09:48:10;;;;;;;;;3.00;2.67;;;;;;;;5097753;27;45339;-80
2023/07/25 09:50:35;;;;;;;;;1.75;1.75;;;;;;;;5099930;27;45411;-78
2023/07/25 09:53:01;;;;;;;;;2.00;2.00;;;;;;;;5099756;27;45343;-79
2023/07/25 09:55:26;;;;;;;;;3.00;3.00;;;;;;;;5099288;27;45503;-79
2023/07/25 09:57:52;;;;;;;;;5.25;2.75;;;;;;;;5099443;27;45363;-80
2023/07/25 10:00:18;;;;;;;;;50.67;41.67;;;;;;;;5099645;27;45325;-77
2023/07/25 10:02:43;;;;;;;;;7.67;6.00;;;;;;;;5099184;27;45465;-79
2023/07/25 10:05:09;;;;;;;;;2.00;1.00;;;;;;;;5097708;27;46792;-80
2023/07/25 10:07:34;;;;;;;;;5.00;2.00;;;;;;;;5099127;27;45443;-79
2023/07/25 10:10:01;;;;;;;;;2.00;2.00;;;;;;;;5099172;27;45424;-78
2023/07/25 10:12:26;;;;;;;;;2.00;2.00;;;;;;;;5100032;27;45439;-81
2023/07/25 10:14:51;;;;;;;;;1.25;1.25;;;;;;;;5098812;27;45358;-78
2023/07/25 10:17:17;;;;;;;;;2.67;2.00;;;;;;;;5090978;27;46090;-78
2023/07/25 10:19:49;;;;;;;;;5.00;2.50;;;;;;;;5092436;27;45421;-75
2023/07/25 10:22:15;;;;;;;;;3.50;2.00;;;;;;;;5099147;27;45324;-74
2023/07/25 10:24:40;;;;;;;;;2.33;2.33;;;;;;;;5098970;27;45319;-77
2023/07/25 10:27:08;;;;;;;;;3.00;3.00;;;;;;;;5098892;27;45236;-77
2023/07/25 10:29:37;;;;;;;;;2.00;2.00;;;;;;;;5096464;27;45346;-79
2023/07/25 10:32:03;;;;;;;;;1.33;1.00;;;;;;;;5095728;27;45694;-77
2023/07/25 10:34:48;;;;;;;;;2.00;2.00;;;;;;;;5098235;27;45336;-78
2023/07/25 10:37:30;;;;;;;;;2.00;0.67;;;;;;;;5097470;27;45461;-78
2023/07/25 10:40:03;;;;;;;;;1.67;1.00;;;;;;;;5098913;27;45868;-77
2023/07/25 10:42:41;;;;;;;;;3.33;1.00;;;;;;;;5099272;27;45275;-77
2023/07/25 10:45:07;;;;;;;;;1.67;1.67;;;;;;;;5094945;27;46568;-77
2023/07/25 10:47:42;;;;;;;;;2.00;1.00;;;;;;;;5096833;27;45581;-76
2023/07/25 10:50:07;;;;;;;;;1.33;1.33;;;;;;;;5098873;27;45314;-75
2023/07/25 10:52:41;;;;;;;;;0.00;0.00;;;;;;;;5099093;27;45386;-76
2023/07/25 10:55:08;;;;;;;;;0.33;0.33;;;;;;;;5098410;27;45447;-75
2023/07/25 10:57:34;;;;;;;;;0.00;0.00;;;;;;;;5084890;27;45394;-75
2023/07/25 11:00:00;;;;;;;;;0.00;0.00;;;;;;;;5059217;28;45272;-79
2023/07/25 11:02:28;;;;;;;;;2.00;2.00;;;;;;;;5095197;27;45319;-81
2023/07/25 11:05:13;;;;;;;;;1.00;1.00;;;;;;;;5098484;27;45228;-80
2023/07/25 11:07:38;;;;;;;;;2.67;1.00;;;;;;;;5097788;27;45419;-79
2023/07/25 11:10:04;;;;;;;;;2.00;1.00;;;;;;;;5097513;27;45416;-78
2023/07/25 11:12:29;;;;;;;;;2.00;2.00;;;;;;;;5098668;27;45521;-76
2023/07/25 11:14:55;;;;;;;;;0.00;0.00;;;;;;;;5098336;27;45462;-78
2023/07/25 11:17:26;;;;;;;;;3.00;1.00;;;;;;;;5098069;27;45843;-80
2023/07/25 11:19:52;;;;;;;;;0.00;0.00;;;;;;;;5098351;27;45280;-77
2023/07/25 11:22:18;;;;;;;;;0.00;0.00;;;;;;;;5098656;27;45351;-77
2023/07/25 11:24:44;;;;;;;;;1.67;1.00;;;;;;;;5098358;27;46213;-79
2023/07/25 11:27:09;;;;;;;;;3.67;0.00;;;;;;;;5098658;27;45319;-78
2023/07/25 11:29:35;;;;;;;;;1.00;1.00;;;;;;;;5094338;27;45368;-78
2023/07/25 11:32:00;;;;;;;;;0.00;0.00;;;;;;;;5094837;27;46342;-75
2023/07/25 11:34:26;;;;;;;;;0.00;0.00;;;;;;;;5096098;27;46283;-73
2023/07/25 11:36:51;;;;;;;;;1.67;0.67;;;;;;;;5094934;27;45453;-76
2023/07/25 11:39:17;;;;;;;;;1.00;1.00;;;;;;;;5095014;27;45514;-77
2023/07/25 11:41:44;;;;;;;;;2.00;1.00;;;;;;;;5096058;27;45430;-74
2023/07/25 11:44:10;;;;;;;;;0.00;0.00;;;;;;;;5095300;27;45450;-75
2023/07/25 11:46:37;;;;;;;;;4.00;1.00;;;;;;;;5095181;27;45352;-73
2023/07/25 11:49:03;;;;;;;;;2.00;1.00;;;;;;;;5095973;27;45903;-74
2023/07/25 11:51:29;;;;;;;;;1.00;1.00;;;;;;;;5095803;27;45384;-73
2023/07/25 11:53:54;;;;;;;;;0.67;0.67;;;;;;;;5094933;27;46558;-74
2023/07/25 11:56:20;;;;;;;;;1.00;1.00;;;;;;;;5095412;27;45564;-75
2023/07/25 11:58:47;;;;;;;;;1.00;1.00;;;;;;;;5095861;27;45432;-76
2023/07/25 12:01:12;;;;;;;;;1.00;1.00;;;;;;;;5096159;27;45461;-75
2023/07/25 12:03:44;;;;;;;;;1.00;1.00;;;;;;;;5095441;27;46338;-75
2023/07/25 12:06:09;;;;;;;;;2.00;0.00;;;;;;;;5095384;27;45398;-76
2023/07/25 12:08:37;;;;;;;;;2.33;1.00;;;;;;;;5095863;27;45789;-76
2023/07/25 12:11:03;;;;;;;;;1.00;0.33;;;;;;;;5096821;27;45379;-77
2023/07/25 12:13:28;;;;;;;;;1.67;1.00;;;;;;;;5098772;27;45647;-76
2023/07/25 12:15:56;;;;;;;;;1.33;1.33;;;;;;;;5098184;27;46323;-76
2023/07/25 12:18:28;;;;;;;;;3.67;1.00;;;;;;;;5098357;27;45533;-76
2023/07/25 12:20:54;;;;;;;;;0.00;0.00;;;;;;;;5098466;27;45378;-75
2023/07/25 12:23:30;;;;;;;;;2.00;0.00;;;;;;;;5096723;27;46655;-75
2023/07/25 12:25:55;;;;;;;;;1.00;1.00;;;;;;;;5098561;27;45181;-76
2023/07/25 12:28:21;;;;;;;;;1.67;1.00;;;;;;;;5098698;27;45489;-75
2023/07/25 12:30:46;;;;;;;;;1.00;1.00;;;;;;;;5098740;27;45463;-75
2023/07/25 12:33:11;;;;;;;;;2.33;2.33;;;;;;;;5098662;27;45621;-75
2023/07/25 12:35:37;;;;;;;;;1.00;1.00;;;;;;;;5093422;27;45838;-75
2023/07/25 12:38:02;;;;;;;;;2.00;1.67;;;;;;;;5098421;27;45457;-74
2023/07/25 12:40:27;;;;;;;;;2.00;1.00;;;;;;;;5098720;27;45376;-73
2023/07/25 12:42:52;;;;;;;;;1.67;1.00;;;;;;;;5097934;27;45491;-73
2023/07/25 12:45:18;;;;;;;;;0.33;0.33;;;;;;;;5098572;27;45361;-72
2023/07/25 12:47:43;;;;;;;;;1.00;1.00;;;;;;;;5092746;27;45218;-73
2023/07/25 12:50:08;;;;;;;;;1.00;1.00;;;;;;;;5098370;27;45740;-74
2023/07/25 12:52:35;;;;;;;;;1.00;1.00;;;;;;;;5097942;27;45636;-76
2023/07/25 12:55:00;;;;;;;;;1.67;1.67;;;;;;;;5093969;27;45457;-75
2023/07/25 12:57:25;;;;;;;;;1.33;1.00;;;;;;;;5098189;27;45428;-75
2023/07/25 12:59:50;;;;;;;;;3.00;1.33;;;;;;;;5097135;27;45571;-74
2023/07/25 13:02:16;;;;;;;;;1.33;0.33;;;;;;;;5097794;27;45438;-75
2023/07/25 13:04:41;;;;;;;;;0.00;0.00;;;;;;;;5098022;27;45378;-76
2023/07/25 13:07:06;;;;;;;;;5.00;3.67;;;;;;;;5097896;27;45319;-76
2023/07/25 13:09:31;;;;;;;;;2.00;2.00;;;;;;;;5097709;27;45451;-75
2023/07/25 13:11:57;;;;;;;;;1.67;1.67;;;;;;;;5097715;27;45510;-75
2023/07/25 13:14:22;;;;;;;;;0.00;0.00;;;;;;;;5097827;27;45548;-76
2023/07/25 13:16:47;;;;;;;;;3.00;3.00;;;;;;;;5097470;27;45464;-75
2023/07/25 13:19:12;;;;;;;;;2.00;2.00;;;;;;;;5098312;27;45466;-81
2023/07/25 13:21:38;;;;;;;;;1.00;1.00;;;;;;;;5096956;27;46399;-76
2023/07/25 13:24:04;;;;;;;;;1.67;1.00;;;;;;;;5096464;27;45500;-76
2023/07/25 13:26:29;;;;;;;;;2.00;2.00;;;;;;;;5097968;27;45556;-75
2023/07/25 13:28:54;;;;;;;;;0.67;0.67;;;;;;;;5098662;27;45491;-79
2023/07/25 13:31:19;;;;;;;;;2.33;2.00;;;;;;;;5097394;27;47951;-76
2023/07/25 13:33:45;;;;;;;;;2.00;1.00;;;;;;;;5097457;27;45783;-76
2023/07/25 13:36:10;;;;;;;;;1.00;1.00;;;;;;;;5097788;27;45486;-77
2023/07/25 13:38:35;;;;;;;;;2.67;2.67;;;;;;;;5097378;27;45536;-77
2023/07/25 13:41:00;;;;;;;;;1.00;1.00;;;;;;;;5097563;27;45522;-76
2023/07/25 13:43:26;;;;;;;;;1.00;1.00;;;;;;;;5097572;27;46287;-78
2023/07/25 13:45:51;;;;;;;;;3.33;1.00;;;;;;;;5097420;27;45505;-81
2023/07/25 13:48:16;;;;;;;;;1.00;1.00;;;;;;;;5097900;27;45391;-80
2023/07/25 13:50:42;;;;;;;;;1.00;1.00;;;;;;;;5097643;27;45418;-80
2023/07/25 13:53:07;;;;;;;;;1.00;1.00;;;;;;;;5097504;27;45527;-81
2023/07/25 13:55:33;;;;;;;;;1.00;0.00;;;;;;;;5097634;27;45548;-79
2023/07/25 13:57:58;;;;;;;;;2.67;1.00;;;;;;;;5097947;27;45419;-78
2023/07/25 14:00:23;;;;;;;;;1.00;1.00;;;;;;;;5097262;27;46232;-80
2023/07/25 14:02:48;;;;;;;;;4.00;3.00;;;;;;;;5097131;27;45393;-79
2023/07/25 14:05:13;;;;;;;;;1.00;1.00;;;;;;;;5097025;27;45606;-81
2023/07/25 14:07:39;;;;;;;;;2.00;2.00;;;;;;;;5097287;27;45361;-78
2023/07/25 14:10:05;;;;;;;;;1.00;1.00;;;;;;;;5095951;27;46459;-78
2023/07/25 14:12:30;;;;;;;;;1.33;1.33;;;;;;;;5097067;27;45526;-81
2023/07/25 14:14:55;;;;;;;;;1.00;1.00;;;;;;;;5096801;27;45533;-79
2023/07/25 14:17:21;;;;;;;;;3.33;2.00;;;;;;;;5097268;27;45471;-80
2023/07/25 14:19:46;;;;;;;;;3.67;2.00;;;;;;;;5097043;27;47403;-81
2023/07/25 14:22:11;;;;;;;;;1.00;1.00;;;;;;;;5096798;27;45652;-77
2023/07/25 14:24:36;;;;;;;;;3.00;3.00;;;;;;;;5096701;27;45436;-80
2023/07/25 14:27:04;;;;;;;;;2.00;1.00;;;;;;;;5095863;27;45541;-76
2023/07/25 14:29:29;;;;;;;;;1.67;1.67;;;;;;;;5096979;27;45443;-79
2023/07/25 14:31:54;;;;;;;;;5.67;1.33;;;;;;;;5096942;27;45458;-80
2023/07/25 14:34:20;;;;;;;;;1.33;1.00;;;;;;;;5095576;27;45583;-77